Time;durP1;ratioP1;P1;durP2;ratioP2;P2;SDS_P1;SDS_P2;PMS_P1;PMS_P2;Temp;Humidity;BMP_temperature;BMP_pressure;BME280_temperature;BME280_humidity;BME280_pressure;Samples;Min_cycle;Max_cycle;Signal;HPM_P1;HPM_P2
2022/08/09 04:00:38;;;;;;;4.73;4.47;;;14.60;99.90;;;;;;5786709;23;20502;-69
2022/08/09 04:03:05;;;;;;;4.47;4.27;;;14.60;99.90;;;;;;4895598;29;20566;-68
2022/08/09 04:05:32;;;;;;;4.90;4.70;;;14.60;99.90;;;;;;4892926;29;20909;-68
2022/08/09 04:07:59;;;;;;;4.67;4.47;;;14.60;99.90;;;;;;4893119;29;20960;-68
2022/08/09 04:10:26;;;;;;;6.17;5.77;;;14.60;99.90;;;;;;4894123;29;20581;-69
2022/08/09 04:12:54;;;;;;;5.60;5.03;;;14.60;99.90;;;;;;4890289;29;20475;-68
2022/08/09 04:15:23;;;;;;;5.60;5.30;;;14.60;99.90;;;;;;4894566;29;20475;-68
2022/08/09 04:17:51;;;;;;;4.47;4.37;;;14.60;99.90;;;;;;4893925;29;20499;-68
2022/08/09 04:20:18;;;;;;;5.13;4.73;;;14.60;99.90;;;;;;4891912;29;20470;-71
2022/08/09 04:22:46;;;;;;;5.73;5.27;;;14.60;99.90;;;;;;4892215;29;21011;-68
2022/08/09 04:25:13;;;;;;;5.20;4.63;;;14.60;99.90;;;;;;4893206;29;20545;-68
2022/08/09 04:27:40;;;;;;;5.27;4.87;;;14.60;99.90;;;;;;4895963;29;20843;-69
2022/08/09 04:30:10;;;;;;;4.80;4.50;;;14.60;99.90;;;;;;4894602;29;20543;-68
2022/08/09 04:32:36;;;;;;;4.97;4.67;;;14.70;99.90;;;;;;4890319;29;21796;-68
2022/08/09 04:35:06;;;;;;;5.53;5.23;;;14.70;99.90;;;;;;4892076;29;20874;-68
2022/08/09 04:37:33;;;;;;;6.90;6.40;;;14.70;99.90;;;;;;4895015;29;20884;-68
2022/08/09 04:39:59;;;;;;;6.37;5.70;;;14.70;99.90;;;;;;4894888;29;20474;-68
2022/08/09 04:42:28;;;;;;;4.50;4.30;;;14.80;99.90;;;;;;4891929;29;20498;-68
2022/08/09 04:44:55;;;;;;;5.83;4.70;;;14.80;99.90;;;;;;4893424;29;21015;-69
2022/08/09 04:47:22;;;;;;;5.10;4.13;;;15.30;99.90;;;;;;4894688;29;20845;-69
2022/08/09 04:49:51;;;;;;;2.90;2.80;;;16.00;99.90;;;;;;4893782;29;20473;-68
2022/08/09 04:52:20;;;;;;;3.13;3.03;;;16.70;99.90;;;;;;4893903;29;20542;-70
2022/08/09 04:54:47;;;;;;;3.30;3.20;;;17.30;99.90;;;;;;4894607;29;20481;-70
2022/08/09 04:57:13;;;;;;;3.53;3.33;;;17.90;99.90;;;;;;4895833;29;20783;-70
2022/08/09 04:59:40;;;;;;;3.40;2.90;;;18.30;99.90;;;;;;4891922;29;20496;-70
2022/08/09 05:02:07;;;;;;;3.50;3.40;;;18.60;99.90;;;;;;4893871;29;20503;-69
2022/08/09 05:04:33;;;;;;;3.97;3.43;;;18.40;99.90;;;;;;4893835;29;20473;-69
2022/08/09 05:07:00;;;;;;;3.27;2.90;;;18.40;99.90;;;;;;4892568;29;20575;-70
2022/08/09 05:09:29;;;;;;;3.60;3.50;;;18.70;99.90;;;;;;4891279;29;20477;-70
2022/08/09 05:11:56;;;;;;;3.43;3.40;;;18.80;99.90;;;;;;4892086;29;20497;-70
2022/08/09 05:14:23;;;;;;;4.07;3.77;;;18.90;99.90;;;;;;4892342;29;20469;-70
2022/08/09 05:16:49;;;;;;;3.40;3.13;;;18.60;99.90;;;;;;4893146;29;20890;-69
2022/08/09 05:19:20;;;;;;;3.63;3.43;;;18.30;99.90;;;;;;4895148;29;20491;-70
2022/08/09 05:21:48;;;;;;;3.77;3.53;;;18.00;99.90;;;;;;4892415;29;21039;-69
2022/08/09 05:24:15;;;;;;;3.70;3.50;;;17.80;99.90;;;;;;4893291;29;20521;-69
2022/08/09 05:26:43;;;;;;;4.47;3.80;;;17.60;99.90;;;;;;4891238;29;20494;-69
2022/08/09 05:29:10;;;;;;;4.43;4.10;;;17.50;99.90;;;;;;4894136;29;20548;-69
2022/08/09 05:31:37;;;;;;;4.00;3.70;;;17.30;99.90;;;;;;4892308;29;20580;-70
2022/08/09 05:34:04;;;;;;;3.80;3.70;;;17.20;99.90;;;;;;4893492;29;20517;-69
2022/08/09 05:36:30;;;;;;;3.43;3.30;;;17.10;99.90;;;;;;4892192;29;20481;-69
2022/08/09 05:38:57;;;;;;;4.63;4.20;;;17.00;99.90;;;;;;4892703;29;20509;-70
2022/08/09 05:41:24;;;;;;;3.80;3.70;;;16.90;99.90;;;;;;4891704;29;20494;-69
2022/08/09 05:43:52;;;;;;;4.80;4.40;;;16.90;99.90;;;;;;4893397;29;20559;-69
2022/08/09 05:46:19;;;;;;;4.20;4.00;;;16.80;99.90;;;;;;4893466;29;20564;-70
2022/08/09 05:48:45;;;;;;;4.23;4.13;;;16.80;99.90;;;;;;4892564;29;20473;-69
2022/08/09 05:51:12;;;;;;;4.10;3.90;;;16.70;99.90;;;;;;4891781;29;20516;-70
2022/08/09 05:53:39;;;;;;;5.13;4.70;;;16.70;99.90;;;;;;4892962;29;20477;-70
2022/08/09 05:56:06;;;;;;;4.97;4.57;;;16.70;99.90;;;;;;4893758;29;20481;-69
2022/08/09 05:58:33;;;;;;;6.20;4.50;;;16.70;99.90;;;;;;4893878;29;20499;-69
2022/08/09 06:01:02;;;;;;;4.10;3.80;;;16.60;99.90;;;;;;4886387;29;20505;-69
2022/08/09 06:03:28;;;;;;;4.50;4.20;;;16.50;99.90;;;;;;4892571;29;20469;-69
2022/08/09 06:05:55;;;;;;;3.83;3.63;;;16.60;99.90;;;;;;4892437;29;20487;-69
2022/08/09 06:08:22;;;;;;;3.73;3.43;;;16.70;99.90;;;;;;4894304;29;20495;-69
2022/08/09 06:10:49;;;;;;;3.67;3.53;;;17.00;99.90;;;;;;4891014;29;20508;-69
2022/08/09 06:13:16;;;;;;;3.43;3.23;;;17.90;99.90;;;;;;4892540;29;20823;-69
2022/08/09 06:15:43;;;;;;;3.33;3.27;;;18.50;99.90;;;;;;4891330;29;20476;-69
2022/08/09 06:18:11;;;;;;;2.43;2.33;;;19.50;99.90;;;;;;4893995;29;20471;-69
2022/08/09 06:20:38;;;;;;;2.60;2.50;;;20.40;99.90;;;;;;4891583;29;20491;-70
2022/08/09 06:23:05;;;;;;;2.70;2.60;;;21.20;99.90;;;;;;4891541;29;20474;-69
2022/08/09 06:25:31;;;;;;;3.00;2.80;;;21.80;99.90;;;;;;4893196;29;20494;-70
2022/08/09 06:27:58;;;;;;;2.93;2.77;;;22.20;99.90;;;;;;4894562;29;20524;-70
2022/08/09 06:30:25;;;;;;;2.70;2.70;;;22.80;99.90;;;;;;4891560;29;20471;-70
2022/08/09 06:32:51;;;;;;;3.13;2.87;;;22.80;99.90;;;;;;4894303;29;20594;-69
2022/08/09 06:35:20;;;;;;;2.60;2.47;;;22.80;99.90;;;;;;4892377;29;20527;-69
2022/08/09 06:37:46;;;;;;;2.43;2.33;;;22.80;99.90;;;;;;4891675;29;20482;-69
2022/08/09 06:40:13;;;;;;;2.23;2.23;;;23.00;99.90;;;;;;4890946;29;20510;-68
2022/08/09 06:42:40;;;;;;;2.50;2.40;;;23.60;99.90;;;;;;4889838;29;20849;-69
2022/08/09 06:45:08;;;;;;;2.03;2.00;;;24.30;99.90;;;;;;4890993;29;20897;-69
2022/08/09 06:47:34;;;;;;;2.53;2.43;;;24.70;99.90;;;;;;4894875;29;20892;-69
2022/08/09 06:50:01;;;;;;;2.30;2.20;;;25.30;99.90;;;;;;4894144;29;20522;-67
2022/08/09 06:52:29;;;;;;;2.10;2.00;;;25.70;99.90;;;;;;4893903;29;20573;-68
2022/08/09 06:54:56;;;;;;;2.10;2.10;;;26.00;99.90;;;;;;4893825;29;20545;-67
2022/08/09 06:57:22;;;;;;;2.03;2.03;;;26.40;99.90;;;;;;4894618;29;20794;-68
2022/08/09 06:59:49;;;;;;;2.40;2.30;;;26.60;99.90;;;;;;4893585;29;20491;-68
2022/08/09 07:02:16;;;;;;;2.20;2.10;;;26.70;99.90;;;;;;4893678;29;20516;-68
2022/08/09 07:04:43;;;;;;;1.93;1.93;;;27.10;99.90;;;;;;4892140;29;20847;-68
2022/08/09 07:07:09;;;;;;;2.73;1.97;;;27.20;99.90;;;;;;4897528;29;20942;-68
2022/08/09 07:09:38;;;;;;;1.80;1.80;;;27.30;99.90;;;;;;4892710;29;20470;-67
2022/08/09 07:12:05;;;;;;;2.00;2.00;;;27.30;99.90;;;;;;4896924;29;20490;-68
2022/08/09 07:14:32;;;;;;;1.87;1.77;;;27.40;99.90;;;;;;4894218;29;20564;-68
2022/08/09 07:16:59;;;;;;;1.97;1.97;;;27.60;99.90;;;;;;4895897;29;20590;-68
2022/08/09 07:19:26;;;;;;;1.87;1.87;;;27.90;99.90;;;;;;4892927;29;20513;-68
2022/08/09 07:21:52;;;;;;;2.20;2.20;;;28.00;99.90;;;;;;4895095;29;20569;-67
2022/08/09 07:24:19;;;;;;;2.40;2.30;;;27.80;99.90;;;;;;4893489;29;20475;-68
2022/08/09 07:26:47;;;;;;;1.70;1.70;;;27.70;99.90;;;;;;4896062;29;20935;-68
2022/08/09 07:29:14;;;;;;;1.73;1.63;;;27.80;99.70;;;;;;4895733;29;20474;-68
2022/08/09 07:31:41;;;;;;;1.87;1.80;;;28.10;99.80;;;;;;4893165;29;20498;-67
2022/08/09 07:34:08;;;;;;;1.97;1.67;;;28.50;99.20;;;;;;4893453;29;20554;-69
2022/08/09 07:36:35;;;;;;;2.13;2.03;;;28.30;98.50;;;;;;4892944;29;20572;-69
2022/08/09 07:39:03;;;;;;;2.20;2.20;;;27.50;99.20;;;;;;4895587;29;20508;-68
2022/08/09 07:41:30;;;;;;;2.47;2.37;;;26.60;99.90;;;;;;4893785;29;20500;-69
2022/08/09 07:43:59;;;;;;;2.43;2.33;;;26.10;99.90;;;;;;4892352;29;20476;-70
2022/08/09 07:46:25;;;;;;;2.67;2.50;;;25.40;99.90;;;;;;4894946;29;20480;-67
2022/08/09 07:48:52;;;;;;;2.80;2.70;;;24.80;99.90;;;;;;4896486;29;20464;-67
2022/08/09 07:51:19;;;;;;;2.83;2.83;;;24.50;99.90;;;;;;4896603;29;20491;-68
2022/08/09 07:53:46;;;;;;;2.13;2.13;;;24.20;99.90;;;;;;4897050;29;20523;-68
2022/08/09 07:56:13;;;;;;;2.53;2.43;;;24.10;99.90;;;;;;4893161;29;20510;-68
2022/08/09 07:58:39;;;;;;;2.70;2.50;;;23.80;99.90;;;;;;4886676;29;20469;-68
2022/08/09 08:01:07;;;;;;;2.83;2.40;;;23.80;99.90;;;;;;4893121;29;20245;-69
2022/08/09 08:03:34;;;;;;;2.13;2.03;;;23.80;99.90;;;;;;4896207;29;20509;-70
2022/08/09 08:06:01;;;;;;;2.40;2.20;;;23.70;99.90;;;;;;4891975;29;20482;-67
2022/08/09 08:08:27;;;;;;;2.37;2.27;;;23.60;99.90;;;;;;4894219;29;20578;-69
2022/08/09 08:10:54;;;;;;;3.03;2.90;;;23.30;99.90;;;;;;4893056;29;20912;-71
2022/08/09 08:13:21;;;;;;;2.60;2.50;;;23.20;99.90;;;;;;4896879;29;20462;-68
2022/08/09 08:15:47;;;;;;;2.50;2.40;;;23.10;99.90;;;;;;4893541;29;20477;-67
2022/08/09 08:18:15;;;;;;;4.13;2.47;;;23.00;99.90;;;;;;4896587;29;20462;-67
2022/08/09 08:20:42;;;;;;;2.60;2.50;;;22.90;99.90;;;;;;4894408;29;20501;-68
2022/08/09 08:23:10;;;;;;;2.57;2.40;;;22.90;99.90;;;;;;4896022;29;20489;-69
2022/08/09 08:25:37;;;;;;;2.07;2.07;;;22.90;99.90;;;;;;4894704;29;20501;-68
2022/08/09 08:28:05;;;;;;;1.90;1.80;;;22.80;99.90;;;;;;4894623;29;20473;-68
2022/08/09 08:30:31;;;;;;;3.27;2.37;;;22.70;99.90;;;;;;4895360;29;20477;-69
2022/08/09 08:32:58;;;;;;;3.80;2.60;;;22.70;99.90;;;;;;4894472;29;20477;-69
2022/08/09 08:35:26;;;;;;;3.03;2.70;;;22.60;99.90;;;;;;4892554;29;20478;-68
2022/08/09 08:37:55;;;;;;;2.20;2.10;;;22.60;99.90;;;;;;4893619;29;20477;-65
2022/08/09 08:40:23;;;;;;;3.17;2.37;;;22.50;99.90;;;;;;4895229;29;20497;-70
2022/08/09 08:42:50;;;;;;;2.37;2.20;;;22.60;99.90;;;;;;4894411;29;20548;-69
2022/08/09 08:45:23;;;;;;;2.43;2.33;;;22.50;99.90;;;;;;4894986;29;20473;-69
2022/08/09 08:47:50;;;;;;;2.10;2.00;;;22.30;99.90;;;;;;4893951;29;20478;-70
2022/08/09 08:50:18;;;;;;;2.97;2.03;;;22.40;99.90;;;;;;4895415;29;20533;-70
2022/08/09 08:52:48;;;;;;;4.30;2.50;;;22.40;99.90;;;;;;4895271;29;20998;-70
2022/08/09 08:55:15;;;;;;;2.10;2.00;;;22.30;99.90;;;;;;4894971;29;21110;-71
2022/08/09 08:57:42;;;;;;;3.03;2.60;;;22.30;99.90;;;;;;4892604;29;20920;-71
2022/08/09 09:00:10;;;;;;;2.93;2.73;;;22.40;99.90;;;;;;4896635;29;20509;-70
2022/08/09 09:02:38;;;;;;;2.90;2.27;;;22.40;99.90;;;;;;4891427;29;20512;-71
2022/08/09 09:05:05;;;;;;;2.50;2.30;;;22.40;99.90;;;;;;4890819;29;21032;-71
2022/08/09 09:07:35;;;;;;;2.57;2.33;;;22.40;99.90;;;;;;4890598;29;20477;-70
2022/08/09 09:10:07;;;;;;;2.60;2.40;;;22.50;99.90;;;;;;4895197;29;20843;-69
2022/08/09 09:12:35;;;;;;;3.87;2.40;;;22.60;99.90;;;;;;4893497;29;20501;-70
2022/08/09 09:15:02;;;;;;;4.03;1.83;;;22.60;99.90;;;;;;4896031;29;20469;-69
2022/08/09 09:17:29;;;;;;;2.03;1.93;;;22.70;99.90;;;;;;4891094;29;20478;-69
2022/08/09 09:19:56;;;;;;;2.17;2.13;;;22.80;99.90;;;;;;4897078;29;20500;-69
2022/08/09 09:22:22;;;;;;;1.90;1.90;;;22.80;99.90;;;;;;4893555;29;20890;-70
2022/08/09 09:24:52;;;;;;;2.00;2.00;;;22.90;99.90;;;;;;4893814;29;20476;-71
2022/08/09 09:27:24;;;;;;;3.93;1.70;;;23.00;99.90;;;;;;4893194;29;20478;-71
2022/08/09 09:29:51;;;;;;;2.00;2.00;;;22.90;99.90;;;;;;4895594;29;20541;-70
2022/08/09 09:32:22;;;;;;;1.70;1.70;;;22.90;99.90;;;;;;4893107;29;20502;-68
2022/08/09 09:35:04;;;;;;;2.50;2.37;;;22.90;99.90;;;;;;4894071;29;20599;-69
2022/08/09 09:37:31;;;;;;;1.60;1.50;;;22.90;99.90;;;;;;4892882;29;20477;-68
2022/08/09 09:39:57;;;;;;;1.70;1.70;;;22.90;99.90;;;;;;4894871;29;20493;-69
2022/08/09 09:42:28;;;;;;;1.90;1.80;;;23.00;99.90;;;;;;4893326;29;20868;-69
2022/08/09 09:44:57;;;;;;;3.08;2.00;;;23.00;99.90;;;;;;4892371;29;20472;-68
2022/08/09 09:47:24;;;;;;;1.90;1.77;;;23.10;99.90;;;;;;4892163;29;20302;-69
2022/08/09 09:49:53;;;;;;;1.80;1.70;;;23.20;99.90;;;;;;4894329;29;20601;-68
2022/08/09 09:52:21;;;;;;;2.00;1.87;;;23.20;99.90;;;;;;4888049;29;20564;-69
2022/08/09 09:54:47;;;;;;;2.53;1.80;;;23.30;99.90;;;;;;4894310;29;20537;-69
2022/08/09 09:57:17;;;;;;;2.53;1.70;;;23.40;99.90;;;;;;4890635;29;20511;-68
2022/08/09 09:59:46;;;;;;;2.10;2.00;;;23.50;99.90;;;;;;4890875;29;20498;-69
2022/08/09 10:02:14;;;;;;;2.47;2.00;;;23.50;99.90;;;;;;4893117;29;20550;-69
2022/08/09 10:04:42;;;;;;;2.23;2.03;;;23.60;99.90;;;;;;4886977;29;21152;-69
2022/08/09 10:07:24;;;;;;;2.50;2.30;;;23.70;99.90;;;;;;4891381;29;20483;-70
2022/08/09 10:09:54;;;;;;;3.17;2.03;;;23.60;99.90;;;;;;4891024;29;20470;-68
2022/08/09 10:12:26;;;;;;;1.80;1.53;;;23.60;99.90;;;;;;4892887;29;20498;-69
2022/08/09 10:15:04;;;;;;;2.50;1.50;;;23.70;99.90;;;;;;4893989;29;21032;-69
2022/08/09 10:17:34;;;;;;;1.70;1.60;;;23.80;99.90;;;;;;4888413;29;21590;-68
2022/08/09 10:20:01;;;;;;;2.70;1.90;;;24.00;99.90;;;;;;4890545;29;20501;-69
2022/08/09 10:22:31;;;;;;;1.60;1.50;;;24.10;99.90;;;;;;4892057;29;20504;-69
2022/08/09 10:24:59;;;;;;;2.97;1.73;;;24.20;99.90;;;;;;4890634;29;20537;-68
2022/08/09 10:27:26;;;;;;;1.70;1.70;;;24.10;99.90;;;;;;4892569;29;20562;-68
2022/08/09 10:29:55;;;;;;;3.90;1.77;;;24.20;99.90;;;;;;4893931;29;20555;-68
2022/08/09 10:32:23;;;;;;;1.73;1.50;;;24.30;99.90;;;;;;4893266;29;20999;-68
2022/08/09 10:34:50;;;;;;;2.33;1.80;;;24.50;99.90;;;;;;4896863;29;20989;-68
2022/08/09 10:37:18;;;;;;;6.17;1.73;;;24.40;99.90;;;;;;4894103;29;20985;-69
2022/08/09 10:39:46;;;;;;;1.90;1.80;;;24.40;99.90;;;;;;4898886;29;21142;-70
2022/08/09 10:42:14;;;;;;;2.10;1.60;;;24.50;99.90;;;;;;4893508;29;20527;-70
2022/08/09 10:44:42;;;;;;;1.63;1.60;;;24.50;99.90;;;;;;4898141;29;20514;-69
2022/08/09 10:47:40;;;;;;;1.53;1.53;;;24.50;99.90;;;;;;4892482;29;20528;-69
2022/08/09 10:50:17;;;;;;;1.70;1.50;;;24.50;99.90;;;;;;4885093;29;20600;-69
2022/08/09 10:53:02;;;;;;;1.53;1.43;;;24.30;99.90;;;;;;4892051;29;20493;-70
2022/08/09 10:55:31;;;;;;;3.03;1.50;;;24.30;99.90;;;;;;4911319;23;20579;-72
2022/08/09 10:57:58;;;;;;;1.40;1.40;;;24.10;99.90;;;;;;4898354;29;20473;-72
2022/08/09 11:00:40;;;;;;;1.87;1.87;;;24.10;99.90;;;;;;4898639;29;20502;-72
2022/08/09 11:03:23;;;;;;;1.60;1.50;;;24.10;99.90;;;;;;4892546;29;21016;-72
2022/08/09 11:06:19;;;;;;;2.50;1.73;;;23.90;99.90;;;;;;4892559;29;20487;-72
2022/08/09 11:08:47;;;;;;;1.57;1.57;;;23.90;99.90;;;;;;4890228;29;20874;-72
2022/08/09 11:11:14;;;;;;;1.63;1.53;;;24.00;99.90;;;;;;4897605;29;20490;-71
2022/08/09 11:13:41;;;;;;;1.20;1.20;;;24.10;99.90;;;;;;4895005;29;20478;-72
2022/08/09 11:16:32;;;;;;;2.03;1.70;;;24.20;99.90;;;;;;4895955;29;20523;-74
2022/08/09 11:19:00;;;;;;;1.40;1.40;;;24.40;99.90;;;;;;4896765;29;20485;-73
2022/08/09 11:21:49;;;;;;;1.23;1.23;;;24.50;99.90;;;;;;4893572;29;20561;-71
2022/08/09 11:24:17;;;;;;;1.43;1.43;;;24.70;99.90;;;;;;4897283;29;20474;-72
2022/08/09 11:26:44;;;;;;;1.40;1.40;;;24.80;99.90;;;;;;4894948;29;20992;-71
2022/08/09 11:29:44;;;;;;;1.60;1.60;;;24.90;99.90;;;;;;4897891;29;20484;-71
2022/08/09 11:32:41;;;;;;;1.20;1.17;;;25.00;99.90;;;;;;4897020;29;20578;-72
2022/08/09 11:35:15;;;;;;;1.33;1.23;;;25.20;99.90;;;;;;4894326;29;20784;-72
2022/08/09 11:37:43;;;;;;;1.90;1.43;;;25.30;99.90;;;;;;4891078;29;20557;-73
2022/08/09 11:40:12;;;;;;;1.60;1.50;;;25.30;99.90;;;;;;4896406;29;20565;-73
2022/08/09 11:42:42;;;;;;;1.57;1.47;;;25.30;99.90;;;;;;4896064;29;20479;-73
2022/08/09 11:45:22;;;;;;;1.43;1.43;;;25.20;99.90;;;;;;4896888;29;20988;-73
2022/08/09 11:47:50;;;;;;;1.50;1.50;;;25.10;99.90;;;;;;4885932;29;20475;-72
2022/08/09 11:50:18;;;;;;;1.70;1.60;;;24.90;99.80;;;;;;4893470;29;20495;-72
2022/08/09 11:53:17;;;;;;;1.80;1.17;;;24.80;99.90;;;;;;4896632;29;20896;-72
2022/08/09 11:55:44;;;;;;;1.60;1.50;;;24.70;99.90;;;;;;4891049;29;21072;-71
2022/08/09 11:58:45;;;;;;;1.30;1.23;;;24.70;99.90;;;;;;4897393;29;20922;-71
2022/08/09 12:01:14;;;;;;;2.43;1.43;;;24.80;99.90;;;;;;4892197;29;20499;-70
2022/08/09 12:03:41;;;;;;;1.50;1.50;;;24.80;99.90;;;;;;4895130;29;20472;-70
2022/08/09 12:06:20;;;;;;;2.00;1.30;;;24.90;99.90;;;;;;4895187;29;20496;-70
2022/08/09 12:08:50;;;;;;;2.73;1.33;;;24.90;99.90;;;;;;4894912;29;22040;-71
2022/08/09 12:11:18;;;;;;;3.60;2.30;;;24.90;99.90;;;;;;4890391;29;20961;-71
2022/08/09 12:13:46;;;;;;;13.10;5.70;;;25.10;99.90;;;;;;4896847;29;20472;-71
2022/08/09 12:16:15;;;;;;;4.70;2.13;;;25.30;99.90;;;;;;4885866;29;20492;-71
2022/08/09 12:18:44;;;;;;;3.57;1.80;;;25.40;99.90;;;;;;4896654;29;20467;-71
2022/08/09 12:21:11;;;;;;;2.13;2.13;;;25.50;99.90;;;;;;4895529;29;21035;-71
2022/08/09 12:23:44;;;;;;;1.30;1.30;;;25.60;98.80;;;;;;4892230;29;20952;-72
2022/08/09 12:26:11;;;;;;;1.50;1.47;;;25.80;98.40;;;;;;4897029;29;20578;-71
2022/08/09 12:28:40;;;;;;;1.67;1.57;;;25.90;98.30;;;;;;4893493;29;20472;-72
2022/08/09 12:31:17;;;;;;;1.20;1.10;;;25.90;98.30;;;;;;4894885;29;20927;-71
2022/08/09 12:33:44;;;;;;;1.20;1.20;;;25.80;97.10;;;;;;4896094;29;20554;-72
2022/08/09 12:36:11;;;;;;;1.53;1.43;;;25.60;97.50;;;;;;4894678;29;20491;-71
2022/08/09 12:38:37;;;;;;;1.47;1.47;;;25.60;97.40;;;;;;4895976;29;20840;-72
2022/08/09 12:41:06;;;;;;;1.20;1.10;;;25.60;96.90;;;;;;4893567;29;20488;-72
2022/08/09 12:43:33;;;;;;;1.57;1.20;;;25.70;97.00;;;;;;4889599;29;20814;-72
2022/08/09 12:46:01;;;;;;;1.33;1.23;;;25.60;96.30;;;;;;4896554;29;20539;-72
2022/08/09 12:48:28;;;;;;;1.33;1.23;;;25.70;96.50;;;;;;4892320;29;20531;-72
2022/08/09 12:50:57;;;;;;;1.50;1.50;;;25.60;95.50;;;;;;4896669;29;20487;-72
2022/08/09 12:53:27;;;;;;;1.80;1.27;;;25.70;95.10;;;;;;4894694;29;20515;-72
2022/08/09 12:56:06;;;;;;;1.00;1.00;;;25.80;94.10;;;;;;4896364;29;20491;-72
2022/08/09 12:58:33;;;;;;;0.80;0.80;;;25.90;95.10;;;;;;4894997;29;20471;-72
2022/08/09 13:01:02;;;;;;;2.37;1.23;;;26.00;95.10;;;;;;4895584;29;20578;-71
2022/08/09 13:03:30;;;;;;;1.20;1.10;;;25.90;94.50;;;;;;4896099;29;20471;-72
2022/08/09 13:05:57;;;;;;;1.30;1.00;;;25.80;93.40;;;;;;4896262;29;20543;-72
2022/08/09 13:08:24;;;;;;;1.00;1.00;;;25.60;93.60;;;;;;4895532;29;20483;-72
2022/08/09 13:10:53;;;;;;;1.57;1.20;;;25.60;93.30;;;;;;4896014;29;20583;-72
2022/08/09 13:13:32;;;;;;;1.27;1.27;;;25.60;93.50;;;;;;4895954;29;20841;-71
2022/08/09 13:16:00;;;;;;;1.37;1.37;;;25.50;93.60;;;;;;4896130;29;20491;-72
2022/08/09 13:18:29;;;;;;;1.10;1.10;;;25.50;94.00;;;;;;4893261;29;20498;-72
2022/08/09 13:20:57;;;;;;;0.90;0.90;;;25.40;93.10;;;;;;4896119;29;21023;-72
2022/08/09 13:23:40;;;;;;;1.60;1.20;;;25.50;94.00;;;;;;4896176;29;20579;-70
2022/08/09 13:26:07;;;;;;;1.20;1.13;;;25.50;94.40;;;;;;4896086;29;21040;-71
2022/08/09 13:28:35;;;;;;;1.70;1.40;;;25.60;95.10;;;;;;4895850;29;20475;-72
2022/08/09 13:31:09;;;;;;;1.20;1.17;;;25.60;95.50;;;;;;4894831;29;20472;-72
2022/08/09 13:33:36;;;;;;;2.03;1.27;;;25.60;95.20;;;;;;4895352;29;20482;-71
2022/08/09 13:36:03;;;;;;;1.20;1.10;;;25.70;94.00;;;;;;4895330;29;20614;-72
2022/08/09 13:38:30;;;;;;;1.50;1.07;;;25.70;93.80;;;;;;4895588;29;20468;-72
2022/08/09 13:40:59;;;;;;;1.47;1.37;;;25.70;94.40;;;;;;4896180;29;20567;-72
2022/08/09 13:43:28;;;;;;;3.70;1.47;;;25.70;94.60;;;;;;4895871;29;20532;-71
2022/08/09 13:45:56;;;;;;;1.20;1.20;;;25.70;94.30;;;;;;4896427;29;20496;-71
2022/08/09 13:48:23;;;;;;;1.70;1.60;;;25.80;94.90;;;;;;4893567;29;20479;-71
2022/08/09 13:50:49;;;;;;;1.10;1.10;;;25.80;95.50;;;;;;4892828;29;20487;-74
2022/08/09 13:53:16;;;;;;;1.30;1.20;;;25.90;95.40;;;;;;4893812;29;20476;-72
2022/08/09 13:55:43;;;;;;;1.90;1.57;;;26.00;94.60;;;;;;4894861;29;20573;-71
2022/08/09 13:58:09;;;;;;;1.30;1.20;;;25.80;94.90;;;;;;4895493;29;20468;-72
2022/08/09 14:00:37;;;;;;;1.60;1.50;;;25.70;95.00;;;;;;4893934;29;20483;-72
2022/08/09 14:03:05;;;;;;;0.97;0.97;;;25.50;94.70;;;;;;4890772;29;20867;-71
2022/08/09 14:05:33;;;;;;;1.50;1.50;;;25.30;94.90;;;;;;4895207;29;20523;-72
2022/08/09 14:08:03;;;;;;;1.27;1.27;;;25.30;95.10;;;;;;4894267;29;20482;-72
2022/08/09 14:10:30;;;;;;;1.27;1.27;;;25.20;94.80;;;;;;4897338;29;20767;-72
2022/08/09 14:12:57;;;;;;;0.93;0.93;;;25.20;94.60;;;;;;4898734;29;20543;-71
2022/08/09 14:15:24;;;;;;;2.43;1.97;;;25.20;94.90;;;;;;4902083;29;20868;-70
2022/08/09 14:17:51;;;;;;;1.47;1.47;;;25.30;95.30;;;;;;4893330;29;20467;-70
2022/08/09 14:20:19;;;;;;;1.37;1.37;;;25.40;94.80;;;;;;4898495;29;20478;-70
2022/08/09 14:22:45;;;;;;;3.90;1.97;;;25.60;94.40;;;;;;4891547;29;20555;-70
2022/08/09 14:25:12;;;;;;;0.87;0.87;;;25.80;95.70;;;;;;4889293;29;20543;-71
2022/08/09 14:27:39;;;;;;;1.20;1.00;;;26.00;94.10;;;;;;4893433;29;20476;-71
2022/08/09 14:30:06;;;;;;;1.30;1.13;;;26.10;93.10;;;;;;4897812;29;20969;-70
2022/08/09 14:32:32;;;;;;;1.10;1.10;;;26.30;93.30;;;;;;4891584;29;20580;-70
2022/08/09 14:34:59;;;;;;;1.20;1.10;;;26.50;93.20;;;;;;4890705;29;20479;-70
2022/08/09 14:37:27;;;;;;;1.27;1.20;;;26.60;92.80;;;;;;4896454;29;20952;-70
2022/08/09 14:39:54;;;;;;;1.30;1.10;;;26.60;92.90;;;;;;4896819;29;20468;-70
2022/08/09 14:42:21;;;;;;;1.33;1.30;;;26.50;92.90;;;;;;4897484;29;20487;-71
2022/08/09 14:44:48;;;;;;;1.97;1.43;;;26.30;93.40;;;;;;4896355;29;20471;-71
2022/08/09 14:47:15;;;;;;;0.80;0.80;;;26.20;93.60;;;;;;4897541;29;20494;-71
2022/08/09 14:49:41;;;;;;;1.27;1.27;;;26.20;93.70;;;;;;4891219;29;20471;-71
2022/08/09 14:52:08;;;;;;;1.30;1.30;;;26.10;93.70;;;;;;4898250;29;20497;-71
2022/08/09 14:54:36;;;;;;;1.50;1.20;;;26.10;93.80;;;;;;4898762;29;20504;-71
2022/08/09 14:57:03;;;;;;;3.03;1.30;;;26.10;93.30;;;;;;4898204;29;20499;-71
2022/08/09 14:59:29;;;;;;;0.83;0.83;;;26.10;93.40;;;;;;4898679;29;20852;-71
2022/08/09 15:01:56;;;;;;;1.77;1.10;;;26.00;93.70;;;;;;4897708;29;20487;-71
2022/08/09 15:04:23;;;;;;;1.30;1.30;;;25.90;93.90;;;;;;4898327;29;20475;-70
2022/08/09 15:06:50;;;;;;;3.83;1.63;;;26.00;94.20;;;;;;4898288;29;20866;-71
2022/08/09 15:09:16;;;;;;;1.37;1.37;;;26.00;94.30;;;;;;4898621;29;20547;-70
2022/08/09 15:11:45;;;;;;;1.40;1.30;;;26.10;94.40;;;;;;4898534;29;20464;-70
2022/08/09 15:14:11;;;;;;;1.30;1.30;;;26.10;94.20;;;;;;4898985;29;20538;-71
2022/08/09 15:16:38;;;;;;;1.37;1.33;;;26.10;94.60;;;;;;4898703;29;20587;-71
2022/08/09 15:19:05;;;;;;;1.30;1.20;;;26.10;94.20;;;;;;4898989;29;20808;-70
2022/08/09 15:21:32;;;;;;;1.80;1.47;;;26.00;94.90;;;;;;4893339;29;21023;-71
2022/08/09 15:23:59;;;;;;;1.40;1.30;;;26.00;95.10;;;;;;4898578;29;20472;-71
2022/08/09 15:26:25;;;;;;;1.10;1.10;;;25.90;95.40;;;;;;4897910;29;20519;-71
2022/08/09 15:28:53;;;;;;;2.30;1.30;;;25.80;95.40;;;;;;4898805;29;20464;-71
2022/08/09 15:31:20;;;;;;;1.63;1.53;;;25.80;95.00;;;;;;4897526;29;20528;-71
2022/08/09 15:33:47;;;;;;;3.03;1.20;;;25.90;95.20;;;;;;4898475;29;20535;-72
2022/08/09 15:36:13;;;;;;;2.03;1.90;;;26.00;95.40;;;;;;4897761;29;21208;-71
2022/08/09 15:38:40;;;;;;;1.43;1.40;;;26.10;95.00;;;;;;4897973;29;20468;-71
2022/08/09 15:41:07;;;;;;;1.50;1.50;;;26.20;94.30;;;;;;4897640;29;20585;-71
2022/08/09 15:43:34;;;;;;;1.43;1.30;;;26.10;94.50;;;;;;4897541;29;20593;-70
2022/08/09 15:46:02;;;;;;;1.63;1.40;;;25.90;94.40;;;;;;4897312;29;20500;-70
2022/08/09 15:48:28;;;;;;;1.33;1.33;;;25.70;94.70;;;;;;4897624;29;20464;-70
2022/08/09 15:50:55;;;;;;;1.07;1.07;;;25.60;95.30;;;;;;4897483;29;20468;-71
2022/08/09 15:53:23;;;;;;;1.70;1.60;;;25.70;95.50;;;;;;4897535;29;20519;-69
2022/08/09 15:55:51;;;;;;;1.10;1.10;;;25.70;95.60;;;;;;4897573;29;20500;-73
2022/08/09 15:58:17;;;;;;;1.50;1.50;;;25.60;95.80;;;;;;4897337;29;21007;-70
2022/08/09 16:00:44;;;;;;;1.50;1.40;;;25.60;96.20;;;;;;4897326;29;20472;-69
2022/08/09 16:03:13;;;;;;;1.73;1.63;;;25.50;96.30;;;;;;4896843;29;20505;-70
2022/08/09 16:05:40;;;;;;;1.57;1.27;;;25.40;95.90;;;;;;4896404;29;20509;-70
2022/08/09 16:08:08;;;;;;;1.40;1.40;;;25.30;96.00;;;;;;4896239;29;20987;-70
2022/08/09 16:10:34;;;;;;;1.20;1.20;;;25.20;96.10;;;;;;4893748;29;20479;-69
2022/08/09 16:13:01;;;;;;;1.70;1.60;;;25.30;96.30;;;;;;4896943;29;20468;-69
2022/08/09 16:15:28;;;;;;;1.60;1.60;;;25.40;96.70;;;;;;4896651;29;20996;-70
2022/08/09 16:17:54;;;;;;;1.40;1.37;;;25.60;96.40;;;;;;4896368;29;20464;-70
2022/08/09 16:20:22;;;;;;;1.30;1.30;;;25.80;95.40;;;;;;4896711;29;20475;-69
2022/08/09 16:22:49;;;;;;;1.70;1.60;;;25.90;94.70;;;;;;4896533;29;20563;-70
2022/08/09 16:25:16;;;;;;;1.93;1.83;;;26.00;95.00;;;;;;4896698;29;20510;-69
2022/08/09 16:27:43;;;;;;;1.40;1.30;;;26.10;94.90;;;;;;4896428;29;20496;-69
2022/08/09 16:30:11;;;;;;;1.70;1.50;;;26.20;94.80;;;;;;4896539;29;20468;-69
2022/08/09 16:35:23;;;;;;;1.90;1.80;;;26.20;95.10;;;;;;4896491;29;20598;-69
2022/08/09 16:37:50;;;;;;;1.43;1.43;;;26.10;95.70;;;;;;4896575;29;20571;-70
2022/08/09 16:40:18;;;;;;;1.93;1.80;;;26.10;95.60;;;;;;4896753;29;20480;-69
2022/08/09 16:42:45;;;;;;;1.37;1.37;;;26.20;95.80;;;;;;4896408;29;20575;-69
2022/08/09 16:45:13;;;;;;;1.10;1.10;;;26.20;95.90;;;;;;4896118;29;20472;-70
2022/08/09 16:47:40;;;;;;;1.30;1.30;;;26.10;95.80;;;;;;4884072;29;20523;-70
2022/08/09 16:50:08;;;;;;;1.60;1.50;;;26.10;95.50;;;;;;4895898;29;20479;-70
2022/08/09 16:52:36;;;;;;;1.60;1.60;;;26.10;95.40;;;;;;4896050;29;20475;-70
2022/08/09 16:55:03;;;;;;;2.07;1.97;;;26.00;95.40;;;;;;4895961;29;20506;-70
2022/08/09 16:57:29;;;;;;;1.53;1.53;;;25.90;95.80;;;;;;4896152;29;20534;-70